釧路空港の過去48時間の天気

釧路空港 (Kushiro)

現在時刻: 5/27 08:06 JST (5/26 23:06 UTC) 以下の時間は現地時間です。

過去48時間のMETAR気象情報
時間 風向 風速(m/s) 視程 気温(℃) 湿度(%) 気圧(hPa) 天気現象
27 07:00 3 200m 12 100 1010
27 06:45 南南西 3 100m 12 100 1010
26 20:33 2 300m 12 100 1012
26 20:20 2 300m 12 100 1011
26 20:08 2 300m 12 100 1011
26 20:00 2 600m 12 100 1011
26 19:04 2 700m 12 100 1011
26 19:00 2 600m 12 100 1011
26 18:42 2 400m 12 100 1011
26 18:20 2 600m 12 100 1010
26 18:05 南南東 2 400m 12 100 1010
26 18:00 2 400m 12 100 1010
26 17:30 2 700m 12 100 1010
26 17:12 不定 1 800m 12 100 1010
26 17:00 2 400m 12 100 1010
26 16:43 2 500m 12 100 1010
26 16:00 南南東 3 900m 12 94 1010
26 15:37 4 900m 12 100 1010
26 15:30 4 900m 12 100 1010
26 15:19 4 900m 12 100 1010
26 15:07 南南東 4 1400m 12 100 1010 散在した霧 もや
26 15:00 4 2300m 12 100 1010 散在した霧 もや
26 14:45 4 3100m 13 94 1010 散在した霧 もや
26 14:40 5 4900m 13 94 1010 散在した霧 もや
26 14:00 5 10km以上 14 88 1010 部分霧
26 13:00 南西 5 10km以上 15 82 1010 部分霧
26 12:00 南南西 6 10km以上 15 82 1011
26 11:00 南南西 6 10km以上 15 77 1011
26 10:00 5 10km以上 13 82 1011 部分霧
26 09:00 3 10km以上 14 82 1011 部分霧
26 08:11 南西 2 10km以上 11 100 1012
26 08:05 不定 1 10km以上 11 100 1012
26 08:00 不定 1 10km以上 11 100 1012
26 07:48 不定 1 5000m 11 100 1012 もや
26 07:40 不定 1 3200m 10 100 1012 散在した霧 もや
26 07:24 不定 1 1500m 10 100 1012 散在した霧 もや
26 07:19 不定 1 1000m 10 100 1012 散在した霧 もや
26 07:00 不定 1 500m 9 100 1012
26 06:45 2 300m 9 100 1012
25 20:00 不定 1 2000m 10 100 1013 散在した霧 もや
25 19:13 不定 1 2300m 10 100 1013 散在した霧 もや
25 19:00 不定 1 3000m 10 100 1012 散在した霧 もや
25 18:16 南東 2 3100m 10 100 1013 散在した霧 もや
25 18:00 南東 3 4500m 10 100 1012 部分霧 もや
25 17:31 南南東 3 4900m 11 94 1012 部分霧 もや
25 17:00 南東 3 6000m 11 94 1012 部分霧
25 16:39 南東 3 7000m 11 100 1012
25 16:00 南東 3 10km以上 11 94 1012
25 15:00 南南東 3 10km以上 11 94 1013
25 14:00 南南東 4 10km以上 11 87 1013
25 13:00 5 10km以上 12 77 1013
25 12:00 南南東 6 10km以上 13 72 1013
25 11:00 6 10km以上 14 67 1014
25 10:00 南南東 6 10km以上 14 55 1014
25 09:00 4 10km以上 14 59 1014
RJCK 262200Z 19006KT 160V230 0200 R17/0200V0300N FG VV001 12/12 Q1010
RJCK 262145Z 21006KT 170V240 0100 R35/0175N FG VV001 12/12 Q1010 RMK A2983
RJCK 261133Z 19004KT 0300 R35/0350N FG VV001 12/12 Q1012 RMK A2988
RJCK 261120Z 18004KT 160V220 0300 R17/0700V1000N FG VV001 12/12 Q1011 RMK A2988
RJCK 261108Z 18004KT 0300 R17/0900VP2000D FG VV001 12/12 Q1011 RMK A2987
RJCK 261100Z 19004KT 0600 R17/2000N FG VV001 12/12 Q1011
RJCK 261004Z 19004KT 150V220 0700 R17/1100VP2000U FG VV001 12/12 Q1011 RMK A2986
RJCK 261000Z 19004KT 160V220 0600 R17/1100VP2000D FG VV001 12/12 Q1011
RJCK 260942Z 19003KT 0400 R17/1000VP2000D FG VV001 12/12 Q1011 RMK A2985
RJCK 260920Z 17003KT 0600 R17/1000VP2000D FG VV001 12/12 Q1010 RMK A2985
RJCK 260905Z 16003KT 0400 R17/0900V1800N FG VV001 12/12 Q1010 RMK A2984
RJCK 260900Z 17004KT 0400 R17/0900V1700N FG VV001 12/12 Q1010
RJCK 260830Z 18004KT 0700 R17/1100VP2000D FG BKN001 BKN002 12/12 Q1010 RMK 6ST001 7ST002 A2984
RJCK 260812Z VRB02KT 0800 R17/1000VP2000U FG BKN001 BKN002 12/12 Q1010 RMK 6ST001 7ST002 A2983
RJCK 260800Z 18003KT 150V220 0400 R17/0750V1600U FG VV001 12/12 Q1010
RJCK 260743Z 19004KT 150V220 0500 R17/0800VP2000D FG VV001 12/12 Q1010 RMK A2983
RJCK 260700Z 16005KT 0900 R17/2000N FG BKN001 BKN002 12/11 Q1010
RJCK 260637Z 17008KT 0900 R17/0900VP2000D FG BKN001 BKN002 12/12 Q1010 RMK 5ST001 6ST002 A2983
RJCK 260630Z 17007KT 0900 R17/1000VP2000U FG BKN001 BKN002 12/12 Q1010 RMK 5ST001 6ST002 A2983
RJCK 260619Z 17007KT 0900 R17/1100VP2000N FG BKN001 BKN002 12/12 Q1010 RMK 5ST001 6ST002 A2983
RJCK 260607Z 16008KT 1400 R17/2000N BCFG BR FEW001 SCT002 BKN003 12/12 Q1010 RMK 1ST001 3ST002 6ST003 A2983
RJCK 260600Z 17008KT 2300 R17/P2000N BCFG BR FEW001 SCT003 BKN004 12/12 Q1010
RJCK 260545Z 18008KT 150V230 3100 R17/P2000N BCFG BR FEW001 BKN004 BKN005 13/12 Q1010 RMK 1ST001 5ST004 7ST005 A2983
RJCK 260540Z 19009KT 4900 R17/P2000N BCFG BR FEW001 SCT004 BKN005 13/12 Q1010 RMK 1ST001 3ST004 6ST005 A2983
RJCK 260500Z 18010KT 9999 PRFG FEW001 SCT005 BKN009 14/12 Q1010
RJCK 260400Z 22009KT 180V250 9999 PRFG FEW001 SCT006 BKN015 15/12 Q1010
RJCK 260300Z 20011KT 9999 FEW002 SCT009 BKN018 15/12 Q1011
RJCK 260200Z 20012KT 9999 FEW002 15/11 Q1011
RJCK 260100Z 18010KT 9999 PRFG FEW001 13/10 Q1011
RJCK 260000Z 18005KT 110V210 9999 PRFG FEW001 SCT010 14/11 Q1011
RJCK 252311Z 23003KT 180V330 9999 FEW002 SCT005 BKN006 11/11 Q1012 RMK 1ST002 4ST005 5ST006 A2988
RJCK 252305Z VRB02KT 9999 FEW002 SCT004 BKN005 11/11 Q1012 RMK 1ST002 4ST004 5ST005 A2989
RJCK 252300Z VRB01KT 9999 FEW002 BKN004 BKN005 11/11 Q1012
RJCK 252248Z VRB01KT 5000 BR FEW001 SCT003 BKN004 11/11 Q1012 RMK 1ST001 4ST003 6ST004 A2989
RJCK 252240Z VRB01KT 3200 R17/P2000N BCFG BR FEW001 SCT002 BKN003 10/10 Q1012 RMK 1ST001 4ST002 6ST003 A2989
RJCK 252224Z VRB02KT 1500 R35/0800V1500D BCFG BR SCT001 BKN002 BKN003 10/10 Q1012 RMK 3ST001 5ST002 6ST003 A2989
RJCK 252219Z VRB02KT 1000 R35/0750V1400U BCFG BR SCT001 BKN002 BKN003 10/10 Q1012 RMK 4ST001 6ST002 7ST003 A2989
RJCK 252200Z VRB02KT 0500 R35/0300V0500U FG VV001 09/09 Q1012
RJCK 252145Z 18003KT 0300 R35/0225N FG VV001 09/09 Q1012 RMK A2989
RJCK 251100Z VRB02KT 2000 R17/P2000N BCFG BR FEW001 BKN003 BKN004 10/10 Q1013
RJCK 251013Z VRB01KT 2300 R17/P2000N BCFG BR FEW001 BKN003 BKN004 10/10 Q1013 RMK 1ST001 5ST003 7ST004 A2991
RJCK 251000Z VRB02KT 3000 BCFG BR FEW001 SCT003 BKN004 10/10 Q1012
RJCK 250916Z 14004KT 120V180 3100 R17/P2000N BCFG BR FEW001 SCT003 BKN004 10/10 Q1013 RMK 1ST001 3ST003 6ST004 A2991
RJCK 250900Z 14005KT 080V180 4500 PRFG BR FEW001 BKN004 BKN005 10/10 Q1012
RJCK 250831Z 15005KT 4900 PRFG BR FEW001 BKN004 BKN005 11/10 Q1012 RMK 1ST001 5ST004 7ST005 A2990 FG S
RJCK 250800Z 13005KT 090V160 6000 PRFG FEW001 SCT004 BKN005 11/10 Q1012
RJCK 250739Z 13005KT 100V160 7000 FEW003 BKN005 BKN006 11/11 Q1012 RMK 1ST003 5ST005 7ST006 A2990
RJCK 250700Z 14005KT 100V190 9999 FEW003 SCT005 BKN006 11/10 Q1012
RJCK 250600Z 16005KT 130V190 9999 FEW003 SCT005 BKN006 11/10 Q1013
RJCK 250500Z 15008KT 9999 FEW005 SCT006 BKN009 11/09 Q1013
RJCK 250400Z 17010KT 140V200 9999 FEW006 SCT010 BKN020 12/08 Q1013
RJCK 250300Z 16011KT 9999 FEW030 SCT/// 13/08 Q1013
RJCK 250200Z 17012KT 9999 FEW030 14/08 Q1014
RJCK 250100Z 16011KT 9999 FEW040 14/05 Q1014
RJCK 250000Z 17007KT 140V200 9999 FEW040 14/06 Q1014